Sunday, December 16, 2018, 3:25 PM GMT
Back to Local

CYYG, Charlottetown, P. E. I.

Location: , , Canada Lat: 46.283
Local Time: 3:25 PM GMT (15:25 GMT) Lon: -63.133
Time Zone: GMT Elev: 157 ft

Show me the last for .
Show Decoded

2018-12-16 15:00 METAR CYYG 161500Z 36008KT 300V020 15SM FEW260 01/M04 A3021 RMK CI1 SLP233 =
2018-12-16 14:00 METAR CYYG 161400Z 31006KT 15SM FEW260 M00/M04 A3023 RMK CI1 SLP240 =
2018-12-16 13:00 METAR CYYG 161300Z 31006KT 15SM SCT260 M02/M05 A3020 RMK CI3 SLP232 =
2018-12-16 12:00 METAR CYYG 161200Z 30007KT 15SM FEW260 M02/M05 A3019 RMK CI2 SLP228 =
2018-12-16 11:00 METAR CYYG 161100Z 31005KT 15SM FEW260 M02/M05 A3020 RMK CI1 CI TR SLP230 =
2018-12-16 10:00 METAR CYYG 161000Z 31007KT 15SM SKC M02/M05 A3018 RMK SLP225 =
2018-12-16 09:00 METAR CYYG 160900Z 32007KT 15SM SKC M02/M05 A3016 RMK SLP219 =
2018-12-16 08:00 METAR CYYG 160800Z 31010KT 15SM SKC M01/M05 A3016 RMK SLP218 =
2018-12-16 07:00 METAR CYYG 160700Z 31009KT 15SM SKC M01/M05 A3016 RMK SLP216 =
2018-12-16 06:00 METAR CYYG 160600Z 30008KT 15SM SKC M00/M05 A3014 RMK SLP210 =
2018-12-16 05:00 METAR CYYG 160500Z 27005KT 250V310 15SM SKC 00/M05 A3012 RMK SLP203 =
2018-12-16 04:00 METAR CYYG 160400Z 30010KT 15SM SKC 00/M04 A3011 RMK SLP198 =
2018-12-16 03:00 METAR CYYG 160300Z 30008KT 15SM FEW042 01/M04 A3009 RMK SC1 SC TR SLP194 =
2018-12-16 02:00 METAR CYYG 160200Z 30007KT 15SM FEW042 01/M04 A3007 RMK SC1 SLP187 =
2018-12-16 01:00 METAR CYYG 160100Z 26005KT 15SM FEW042 01/M04 A3007 RMK SC2 SLP186 =
2018-12-16 00:00 METAR CYYG 160000Z 29007KT 15SM SCT042 02/M04 A3006 RMK SC3 SLP181 =
2018-12-15 23:00 METAR CYYG 152300Z 28005KT 15SM SCT042 02/M04 A3005 RMK SC4 SLP178 =
2018-12-15 22:00 METAR CYYG 152200Z 29006G16KT 15SM BKN043 02/M03 A3004 RMK SC6 SLP175 =
2018-12-15 21:54 METAR CYYG 152154Z 29007G16KT 15SM BKN043 02/M03 A3004 RMK SC6 SLP175 =
2018-12-15 21:00 METAR CYYG 152100Z 31007KT 15SM BKN044 03/M03 A3002 RMK SC5 SLP168 =
2018-12-15 20:00 METAR CYYG 152000Z 30006KT 15SM SCT020 BKN082 03/M01 A2998 RMK SC3AC2 SLP156 =
2018-12-15 19:00 METAR CYYG 151900Z 30009KT 15SM BKN020 BKN240 04/00 A2995 RMK SC6CI1 PRESRR
                 SLP146 =
2018-12-15 18:00 METAR CYYG 151800Z 29010G16KT 15SM BKN026 BKN140 04/01 A2992 RMK SC5AC1 AC TR
                 SLP135 =
2018-12-15 17:00 METAR CYYG 151700Z 29011G17KT 15SM SCT017 BKN240 04/01 A2991 RMK SF4CI1 SLP133 =
2018-12-15 16:00 METAR CYYG 151600Z 29010G16KT 15SM SCT014 BKN025 04/01 A2993 RMK SC3SC4 SLP138 =

Support USWX by starting your Amazon purchase here.